createdAt,value
2022-10-28T00:01:24.305Z,3.53
2022-10-28T00:03:27.159Z,3.40
2022-10-28T00:05:30.350Z,4.00
2022-10-28T00:07:34.520Z,3.73
2022-10-28T00:09:37.356Z,3.60
2022-10-28T00:11:40.334Z,3.57
2022-10-28T00:13:44.034Z,3.50
2022-10-28T00:15:47.079Z,3.40
2022-10-28T00:17:50.094Z,3.60
2022-10-28T00:19:52.968Z,3.57
2022-10-28T00:21:55.887Z,3.90
2022-10-28T00:24:00.142Z,4.00
2022-10-28T00:26:10.739Z,4.03
2022-10-28T00:28:13.689Z,3.40
2022-10-28T00:30:16.696Z,3.87
2022-10-28T00:32:19.582Z,3.27
2022-10-28T00:34:22.945Z,3.70
2022-10-28T00:36:28.439Z,3.70
2022-10-28T00:38:32.213Z,3.80
2022-10-28T00:40:37.352Z,3.83
2022-10-28T00:42:40.435Z,3.90
2022-10-28T00:44:58.440Z,3.43
2022-10-28T00:47:01.551Z,3.60
2022-10-28T00:49:07.747Z,3.83
2022-10-28T00:51:10.856Z,3.43
2022-10-28T00:53:17.282Z,3.70
2022-10-28T00:55:22.168Z,3.73
2022-10-28T00:57:31.807Z,3.67
2022-10-28T00:59:38.183Z,3.47
2022-10-28T01:01:41.220Z,4.00
2022-10-28T01:03:44.271Z,4.27
2022-10-28T01:05:50.858Z,3.50
2022-10-28T01:07:56.870Z,3.50
2022-10-28T01:10:00.085Z,4.03
2022-10-28T01:12:16.320Z,3.30
2022-10-28T01:14:31.952Z,4.50
2022-10-28T01:16:43.434Z,3.73
2022-10-28T01:18:55.103Z,3.90
2022-10-28T01:21:41.616Z,3.60
2022-10-28T01:23:58.411Z,3.47
2022-10-28T01:26:38.127Z,3.30
2022-10-28T01:29:06.618Z,3.90
2022-10-28T01:31:23.249Z,3.70
2022-10-28T01:33:31.684Z,3.90
2022-10-28T01:35:42.848Z,3.60
2022-10-28T01:37:56.636Z,3.63
2022-10-28T01:40:06.812Z,3.67
2022-10-28T01:42:16.581Z,4.00
2022-10-28T01:44:25.776Z,3.47
2022-10-28T01:46:37.339Z,3.70
2022-10-28T01:48:46.519Z,4.17
2022-10-28T01:50:56.551Z,4.07
2022-10-28T01:53:02.421Z,3.77
2022-10-28T01:55:10.712Z,4.67
2022-10-28T01:57:15.903Z,3.90
2022-10-28T01:59:22.238Z,3.30
2022-10-28T02:01:26.009Z,4.17
2022-10-28T02:03:30.333Z,3.80
2022-10-28T02:05:42.846Z,4.07
2022-10-28T02:07:46.172Z,3.73
2022-10-28T02:10:01.070Z,3.63
2022-10-28T02:12:23.698Z,3.90
2022-10-28T02:14:39.415Z,3.90
2022-10-28T02:16:48.920Z,3.80
2022-10-28T02:19:01.743Z,3.70
2022-10-28T02:21:07.556Z,3.40
2022-10-28T02:23:19.919Z,3.50
2022-10-28T02:25:26.997Z,3.80
2022-10-28T02:27:35.282Z,3.60
2022-10-28T02:29:46.006Z,3.70
2022-10-28T02:31:54.434Z,3.80
2022-10-28T02:34:02.295Z,3.97
2022-10-28T02:36:07.570Z,3.70
2022-10-28T02:38:14.956Z,3.50
2022-10-28T02:40:22.341Z,4.37
2022-10-28T02:42:29.129Z,4.13
2022-10-28T02:44:36.186Z,3.80
2022-10-28T02:46:43.570Z,3.90
2022-10-28T02:48:49.016Z,4.13
2022-10-28T02:50:58.396Z,3.80
2022-10-28T02:53:03.604Z,4.00
2022-10-28T02:55:07.768Z,4.20
2022-10-28T02:57:14.253Z,3.60
2022-10-28T02:59:17.140Z,3.70
2022-10-28T03:01:20.048Z,3.77
2022-10-28T03:03:22.921Z,4.20
2022-10-28T03:05:25.794Z,3.90
2022-10-28T03:07:30.060Z,3.50
2022-10-28T03:09:32.946Z,3.53
2022-10-28T03:11:35.855Z,3.63
2022-10-28T03:13:38.669Z,4.30
2022-10-28T03:15:41.464Z,3.60
2022-10-28T03:17:44.338Z,3.77
2022-10-28T03:19:47.161Z,4.00
2022-10-28T03:21:50.002Z,3.80
2022-10-28T03:23:54.296Z,3.67
2022-10-28T03:25:57.113Z,4.60
2022-10-28T03:27:59.913Z,4.20
2022-10-28T03:30:02.846Z,3.63
2022-10-28T03:32:06.217Z,3.73
2022-10-28T03:34:09.058Z,3.63
2022-10-28T03:36:11.836Z,4.10
2022-10-28T03:38:14.652Z,4.03
2022-10-28T03:40:19.072Z,3.47
2022-10-28T03:42:21.916Z,3.37
2022-10-28T03:44:25.174Z,3.70
2022-10-28T03:46:29.108Z,3.73
2022-10-28T03:48:33.994Z,3.50
2022-10-28T03:50:37.079Z,3.60
2022-10-28T03:52:39.873Z,3.60
2022-10-28T03:54:42.706Z,3.87
2022-10-28T03:56:46.894Z,3.60
2022-10-28T03:58:50.108Z,4.53
2022-10-28T04:00:54.028Z,4.27
2022-10-28T04:02:57.127Z,3.93
2022-10-28T04:05:00.117Z,3.83
2022-10-28T04:07:02.992Z,3.77
2022-10-28T04:09:05.940Z,3.80
2022-10-28T04:11:09.183Z,3.53
2022-10-28T04:13:14.100Z,3.43
2022-10-28T04:15:17.014Z,3.60
2022-10-28T04:17:19.819Z,3.40
2022-10-28T04:19:22.605Z,4.80
2022-10-28T04:21:25.486Z,4.40
2022-10-28T04:23:28.479Z,3.90
2022-10-28T04:25:31.276Z,3.50
2022-10-28T04:27:34.097Z,4.00
2022-10-28T04:29:38.222Z,3.40
2022-10-28T04:31:41.021Z,4.00
2022-10-28T04:33:43.826Z,3.93
2022-10-28T04:35:46.711Z,4.40
2022-10-28T04:37:49.527Z,4.00
2022-10-28T04:39:52.314Z,3.90
2022-10-28T04:41:55.131Z,3.73
2022-10-28T04:43:57.991Z,3.77
2022-10-28T04:46:05.855Z,3.60
2022-10-28T04:48:10.673Z,3.40
2022-10-28T04:50:13.482Z,3.87
2022-10-28T04:52:16.285Z,3.60
2022-10-28T04:54:19.153Z,3.77
2022-10-28T04:56:22.150Z,3.50
2022-10-28T04:58:25.430Z,3.40
2022-10-28T05:00:29.934Z,3.77
2022-10-28T05:02:34.105Z,4.00
2022-10-28T05:04:36.911Z,3.50
2022-10-28T05:06:39.742Z,3.83
2022-10-28T05:08:42.538Z,3.57
2022-10-28T05:10:48.811Z,3.60
2022-10-28T05:12:51.656Z,3.70
2022-10-28T05:14:54.508Z,3.50
2022-10-28T05:16:57.293Z,3.70
2022-10-28T05:19:01.452Z,3.77
2022-10-28T05:21:04.390Z,4.10
2022-10-28T05:23:07.199Z,6.07
2022-10-28T05:25:10.278Z,6.63
2022-10-28T05:27:13.490Z,6.03
2022-10-28T05:29:16.271Z,4.87
2022-10-28T05:31:19.209Z,5.27
2022-10-28T05:33:21.993Z,3.90
2022-10-28T05:35:26.237Z,4.10
2022-10-28T05:37:29.022Z,3.97
2022-10-28T05:39:31.820Z,8.07
2022-10-28T05:41:38.636Z,6.23
2022-10-28T05:43:41.679Z,4.87
2022-10-28T05:45:44.479Z,4.83
2022-10-28T05:47:48.562Z,4.23
2022-10-28T05:49:51.355Z,3.90
2022-10-28T05:51:55.502Z,3.47
2022-10-28T05:53:58.267Z,4.20
2022-10-28T05:56:01.063Z,3.63
2022-10-28T05:58:04.169Z,3.67
2022-10-28T06:00:08.398Z,3.87
2022-10-28T06:02:15.022Z,3.90
2022-10-28T06:04:17.916Z,3.90
2022-10-28T06:06:20.764Z,3.57
2022-10-28T06:08:24.908Z,3.80
2022-10-28T06:10:27.832Z,3.60
2022-10-28T06:12:29.314Z,3.63
2022-10-28T06:14:32.200Z,3.47
2022-10-28T06:16:34.966Z,3.53
2022-10-28T06:18:37.769Z,3.30
2022-10-28T06:20:40.583Z,3.47
2022-10-28T06:22:47.621Z,3.50
2022-10-28T06:24:51.759Z,3.57
2022-10-28T06:26:54.533Z,3.93
2022-10-28T06:28:57.343Z,3.90
2022-10-28T06:31:03.962Z,3.53
2022-10-28T06:33:06.827Z,3.80
2022-10-28T06:35:09.630Z,3.67
2022-10-28T06:37:12.747Z,3.57
2022-10-28T06:39:15.659Z,3.47
2022-10-28T06:41:19.812Z,3.33
2022-10-28T06:43:22.624Z,3.73
2022-10-28T06:45:26.099Z,3.23
2022-10-28T06:47:30.416Z,3.50
2022-10-28T06:49:33.243Z,3.13
2022-10-28T06:51:36.072Z,3.10
2022-10-28T06:53:38.895Z,3.43
2022-10-28T06:55:41.701Z,3.67
2022-10-28T06:57:45.813Z,3.27
2022-10-28T06:59:49.871Z,3.47
2022-10-28T07:01:52.765Z,3.13
2022-10-28T07:03:55.650Z,3.07
2022-10-28T07:05:58.492Z,3.10
2022-10-28T07:08:01.283Z,3.10
2022-10-28T07:10:04.705Z,2.93
2022-10-28T07:12:08.800Z,3.30
2022-10-28T07:14:13.007Z,2.93
2022-10-28T07:16:15.822Z,3.10
2022-10-28T07:18:18.648Z,2.93
2022-10-28T07:20:21.483Z,2.80
2022-10-28T07:22:25.806Z,3.23
2022-10-28T07:24:28.849Z,2.90
2022-10-28T07:26:31.649Z,3.07
2022-10-28T07:28:34.480Z,3.10
2022-10-28T07:30:38.666Z,3.03
2022-10-28T07:32:41.474Z,3.40
2022-10-28T07:34:44.272Z,3.30
2022-10-28T07:36:49.952Z,2.63
2022-10-28T07:38:53.846Z,2.90
2022-10-28T07:40:56.658Z,3.10
2022-10-28T07:42:59.987Z,3.27
2022-10-28T07:45:02.783Z,2.87
2022-10-28T07:47:06.989Z,2.80
2022-10-28T07:49:09.855Z,3.00
2022-10-28T07:51:14.943Z,3.13
2022-10-28T07:53:17.910Z,2.80
2022-10-28T07:55:21.474Z,3.10
2022-10-28T07:57:24.357Z,2.70
2022-10-28T07:59:27.298Z,2.87
2022-10-28T08:01:30.618Z,3.10
2022-10-28T08:03:39.056Z,2.87
2022-10-28T08:05:42.153Z,2.87
2022-10-28T08:07:46.768Z,2.60
2022-10-28T08:09:49.612Z,3.03
2022-10-28T08:11:56.007Z,2.93
2022-10-28T08:13:58.918Z,2.90
2022-10-28T08:16:01.776Z,2.70
2022-10-28T08:18:04.736Z,3.10
2022-10-28T08:20:09.997Z,2.57
2022-10-28T08:22:12.815Z,3.23
2022-10-28T08:24:15.701Z,2.60
2022-10-28T08:26:18.571Z,2.40
2022-10-28T08:28:21.599Z,2.83
2022-10-28T08:30:24.382Z,2.53
2022-10-28T08:32:27.207Z,3.07
2022-10-28T08:34:31.263Z,2.60
2022-10-28T08:36:36.077Z,3.23
2022-10-28T08:38:44.285Z,2.50
2022-10-28T08:40:56.294Z,2.87
2022-10-28T08:43:07.146Z,2.97
2022-10-28T08:45:25.354Z,3.10
2022-10-28T08:47:39.972Z,2.90
2022-10-28T08:49:45.815Z,2.70
2022-10-28T08:51:57.268Z,2.73
2022-10-28T08:54:05.940Z,2.53
2022-10-28T08:56:14.661Z,2.80
2022-10-28T08:58:21.741Z,2.80
2022-10-28T09:00:26.945Z,2.90
2022-10-28T09:02:37.061Z,2.53
2022-10-28T09:04:42.530Z,2.43
2022-10-28T09:06:45.373Z,2.60
2022-10-28T09:08:50.948Z,2.73
2022-10-28T09:11:02.610Z,2.90
2022-10-28T09:13:14.550Z,2.73
2022-10-28T09:15:28.508Z,2.60
2022-10-28T09:17:38.246Z,3.20
2022-10-28T09:19:49.036Z,2.70
2022-10-28T09:21:58.802Z,2.30
2022-10-28T09:24:12.319Z,2.50
2022-10-28T09:26:25.465Z,2.33
2022-10-28T09:28:47.443Z,2.40
2022-10-28T09:30:58.195Z,2.70
2022-10-28T09:33:10.286Z,2.70
2022-10-28T09:35:16.963Z,2.50
2022-10-28T09:37:24.113Z,2.77
2022-10-28T09:39:30.649Z,2.87
2022-10-28T09:41:37.910Z,2.80
2022-10-28T09:43:47.613Z,2.70
2022-10-28T09:45:53.916Z,2.67
2022-10-28T09:48:00.157Z,2.57
2022-10-28T09:50:07.511Z,2.63
2022-10-28T09:52:16.074Z,2.60
2022-10-28T09:54:22.780Z,2.80
2022-10-28T09:56:28.425Z,2.47
2022-10-28T09:58:32.490Z,2.60
2022-10-28T10:00:35.566Z,2.60
2022-10-28T10:02:40.383Z,2.90
2022-10-28T10:04:44.062Z,2.63
2022-10-28T10:06:49.665Z,2.47
2022-10-28T10:08:53.803Z,2.60
2022-10-28T10:11:01.330Z,2.53
2022-10-28T10:13:07.291Z,2.53
2022-10-28T10:15:19.964Z,2.37
2022-10-28T10:17:25.320Z,2.70
2022-10-28T10:19:28.158Z,2.90
2022-10-28T10:21:43.194Z,2.25
2022-10-28T10:23:45.990Z,2.07
2022-10-28T10:25:56.220Z,2.93
2022-10-28T10:28:03.079Z,2.60
2022-10-28T10:30:19.358Z,2.70
2022-10-28T10:32:26.609Z,2.33
2022-10-28T10:34:30.600Z,2.60
2022-10-28T10:36:35.130Z,2.70
2022-10-28T10:38:39.998Z,2.70
2022-10-28T10:40:50.486Z,2.70
2022-10-28T10:43:13.171Z,2.83
2022-10-28T10:45:23.598Z,2.73
2022-10-28T10:47:26.557Z,2.60
2022-10-28T10:49:30.502Z,2.70
2022-10-28T10:51:35.252Z,2.30
2022-10-28T10:53:41.351Z,3.30
2022-10-28T10:55:51.734Z,2.60
2022-10-28T10:57:55.433Z,2.63
2022-10-28T10:59:58.908Z,2.65
2022-10-28T11:02:03.140Z,2.70
2022-10-28T11:04:08.051Z,2.47
2022-10-28T11:06:24.364Z,2.63
2022-10-28T11:08:37.473Z,2.63
2022-10-28T11:10:40.382Z,2.50
2022-10-28T11:12:53.229Z,2.40
2022-10-28T11:14:59.061Z,2.70
2022-10-28T11:17:04.835Z,2.72
2022-10-28T11:19:20.853Z,2.80
2022-10-28T11:21:47.912Z,2.58
2022-10-28T11:24:00.519Z,2.60
2022-10-28T11:26:06.795Z,2.90
2022-10-28T11:28:28.805Z,2.35
2022-10-28T11:30:40.535Z,2.70
2022-10-28T11:33:08.030Z,2.47
2022-10-28T11:35:43.851Z,2.75
2022-10-28T11:38:02.351Z,2.50
2022-10-28T11:40:16.652Z,2.50
2022-10-28T11:42:31.565Z,2.70
2022-10-28T11:44:49.291Z,3.08
2022-10-28T11:47:03.957Z,2.45
2022-10-28T11:49:42.820Z,2.50
2022-10-28T11:51:55.333Z,2.50
2022-10-28T11:54:33.923Z,2.80
2022-10-28T11:56:40.470Z,3.08
2022-10-28T11:58:52.483Z,2.42
2022-10-28T12:01:04.407Z,2.80
2022-10-28T12:03:33.693Z,2.80
2022-10-28T12:05:44.405Z,2.63
2022-10-28T12:08:11.645Z,2.65
2022-10-28T12:10:34.545Z,2.70
2022-10-28T12:12:48.688Z,3.45
2022-10-28T12:15:01.723Z,2.78
2022-10-28T12:17:14.553Z,2.63
2022-10-28T12:19:20.485Z,2.63
2022-10-28T12:21:31.127Z,2.72
2022-10-28T12:23:36.525Z,3.22
2022-10-28T12:25:43.043Z,2.58
2022-10-28T12:27:50.396Z,2.75
2022-10-28T12:29:59.768Z,2.70
2022-10-28T12:32:08.098Z,2.75
2022-10-28T12:34:14.205Z,3.05
2022-10-28T12:36:25.415Z,2.72
2022-10-28T12:38:35.344Z,2.30
2022-10-28T12:40:46.405Z,2.50
2022-10-28T12:42:55.077Z,2.60
2022-10-28T12:45:00.421Z,2.60
2022-10-28T12:47:12.987Z,2.70
2022-10-28T12:49:24.711Z,2.60
2022-10-28T12:51:32.321Z,2.75
2022-10-28T12:53:44.357Z,2.90
2022-10-28T12:55:51.423Z,2.55
2022-10-28T12:58:00.742Z,2.80
2022-10-28T13:00:07.480Z,3.65
2022-10-28T13:02:19.212Z,2.90
2022-10-28T13:04:22.910Z,3.03
2022-10-28T13:06:53.774Z,3.08
2022-10-28T13:09:24.210Z,3.17
2022-10-28T13:11:53.761Z,2.60
2022-10-28T13:13:59.983Z,2.40
2022-10-28T13:16:21.297Z,2.67
2022-10-28T13:18:59.246Z,2.95
2022-10-28T13:21:11.847Z,2.90
2022-10-28T13:23:26.755Z,2.70
2022-10-28T13:25:48.680Z,2.78
2022-10-28T13:27:57.547Z,3.00
2022-10-28T13:30:02.881Z,2.65
2022-10-28T13:32:05.886Z,2.85
2022-10-28T13:34:10.029Z,2.45
2022-10-28T13:36:20.196Z,2.90
2022-10-28T13:38:25.928Z,2.47
2022-10-28T13:41:13.720Z,3.20
2022-10-28T13:43:21.628Z,2.70
2022-10-28T13:45:48.275Z,2.90
2022-10-28T13:47:51.160Z,2.80
2022-10-28T13:50:21.459Z,2.92
2022-10-28T13:52:24.283Z,2.47
2022-10-28T13:54:31.184Z,2.65
2022-10-28T13:56:45.117Z,3.22
2022-10-28T13:58:55.050Z,3.10
2022-10-28T14:00:57.919Z,2.72
2022-10-28T14:03:02.708Z,3.17
2022-10-28T14:05:08.110Z,3.05
2022-10-28T14:07:23.546Z,3.10
2022-10-28T14:09:31.143Z,2.83
2022-10-28T14:11:33.991Z,2.60
2022-10-28T14:13:39.866Z,3.10
2022-10-28T14:15:44.568Z,2.80
2022-10-28T14:17:51.449Z,2.80
2022-10-28T14:19:55.329Z,2.90
2022-10-28T14:22:03.908Z,3.00
2022-10-28T14:24:14.492Z,2.78
2022-10-28T14:26:17.473Z,2.65
2022-10-28T14:28:52.448Z,2.88
2022-10-28T14:31:24.592Z,3.10
2022-10-28T14:33:27.503Z,2.72
2022-10-28T14:35:38.570Z,3.00
2022-10-28T14:38:11.268Z,2.50
2022-10-28T14:40:25.217Z,3.13
2022-10-28T14:42:42.421Z,2.90
2022-10-28T14:45:01.840Z,3.10
2022-10-28T14:47:39.126Z,2.75
2022-10-28T14:49:47.920Z,2.92
2022-10-28T14:51:51.422Z,2.88
2022-10-28T14:53:57.916Z,3.08
2022-10-28T14:56:04.086Z,2.78
2022-10-28T14:58:20.047Z,3.05
2022-10-28T15:00:25.823Z,3.35
2022-10-28T15:02:32.257Z,3.00
2022-10-28T15:04:35.284Z,3.22
2022-10-28T15:06:42.123Z,3.33
2022-10-28T15:08:44.981Z,2.92
2022-10-28T15:10:50.235Z,2.67
2022-10-28T15:12:56.268Z,3.20
2022-10-28T15:14:59.346Z,3.00
2022-10-28T15:17:12.171Z,2.90
2022-10-28T15:19:19.797Z,2.85
2022-10-28T15:21:23.588Z,2.67
2022-10-28T15:23:26.522Z,2.95
2022-10-28T15:25:29.711Z,2.85
2022-10-28T15:27:33.884Z,2.60
2022-10-28T15:29:45.548Z,2.33
2022-10-28T15:32:10.557Z,3.05
2022-10-28T15:34:22.866Z,2.53
2022-10-28T15:36:27.047Z,2.97
2022-10-28T15:38:39.358Z,2.58
2022-10-28T15:40:42.177Z,2.88
2022-10-28T15:42:50.452Z,2.88
2022-10-28T15:44:56.620Z,2.60
2022-10-28T15:47:00.697Z,2.90
2022-10-28T15:49:03.806Z,2.97
2022-10-28T15:51:15.471Z,3.10
2022-10-28T15:53:24.061Z,2.60
2022-10-28T15:55:35.922Z,3.00
2022-10-28T15:57:53.113Z,3.10
2022-10-28T16:00:22.078Z,2.77
2022-10-28T16:02:45.906Z,2.83
2022-10-28T16:04:48.965Z,2.73
2022-10-28T16:06:55.490Z,2.40
2022-10-28T16:09:02.623Z,2.70
2022-10-28T16:11:13.961Z,2.80
2022-10-28T16:13:21.041Z,3.17
2022-10-28T16:15:24.231Z,3.20
2022-10-28T16:17:30.134Z,6.20
2022-10-28T16:19:37.363Z,3.23
2022-10-28T16:21:40.295Z,3.17
2022-10-28T16:23:44.653Z,2.77
2022-10-28T16:25:47.785Z,2.67
2022-10-28T16:27:51.820Z,2.60
2022-10-28T16:29:55.149Z,2.80
2022-10-28T16:31:57.952Z,2.80
2022-10-28T16:34:00.834Z,2.90
2022-10-28T16:36:03.843Z,2.80
2022-10-28T16:38:12.022Z,2.70
2022-10-28T16:40:37.820Z,3.20
2022-10-28T16:42:40.724Z,2.60
2022-10-28T16:44:43.594Z,2.93
2022-10-28T16:46:46.399Z,3.10
2022-10-28T16:48:49.168Z,2.80
2022-10-28T16:50:53.759Z,2.70
2022-10-28T16:52:56.552Z,3.10
2022-10-28T16:54:59.960Z,2.50
2022-10-28T16:57:04.155Z,2.60
2022-10-28T16:59:06.931Z,3.03
2022-10-28T17:01:10.693Z,3.00
2022-10-28T17:03:15.595Z,2.53
2022-10-28T17:05:21.038Z,2.87
2022-10-28T17:07:23.879Z,3.37
2022-10-28T17:09:26.831Z,2.80
2022-10-28T17:13:38.748Z,2.90
2022-10-28T17:15:42.817Z,3.00
2022-10-28T17:17:45.969Z,2.80
2022-10-28T17:19:48.820Z,3.00
2022-10-28T17:21:51.716Z,2.73
2022-10-28T17:23:54.517Z,2.50
2022-10-28T17:25:58.895Z,2.73
2022-10-28T17:28:01.730Z,3.00
2022-10-28T17:30:07.564Z,2.73
2022-10-28T17:32:10.474Z,2.70
2022-10-28T17:34:13.532Z,2.90
2022-10-28T17:36:16.372Z,3.13
2022-10-28T17:38:19.158Z,3.07
2022-10-28T17:40:22.036Z,2.40
2022-10-28T17:42:24.850Z,2.67
2022-10-28T17:44:27.682Z,2.63
2022-10-28T17:46:31.776Z,2.73
2022-10-28T17:48:34.806Z,2.60
2022-10-28T17:50:37.630Z,2.77
2022-10-28T17:52:40.408Z,3.00
2022-10-28T17:54:43.411Z,2.60
2022-10-28T17:56:47.762Z,2.67
2022-10-28T17:58:53.291Z,3.23
2022-10-28T18:01:00.498Z,2.97
2022-10-28T18:03:06.231Z,2.57
2022-10-28T18:05:09.598Z,3.10
2022-10-28T18:07:12.414Z,2.80
2022-10-28T18:09:15.580Z,2.87
2022-10-28T18:11:20.652Z,2.80
2022-10-28T18:13:27.799Z,3.10
2022-10-28T18:15:30.607Z,3.33
2022-10-28T18:17:33.383Z,2.43
2022-10-28T18:19:37.505Z,2.93
2022-10-28T18:21:40.757Z,2.80
2022-10-28T18:23:43.557Z,3.13
2022-10-28T18:25:46.368Z,3.10
2022-10-28T18:27:49.167Z,2.80
2022-10-28T18:29:52.061Z,2.73
2022-10-28T18:31:56.624Z,3.43
2022-10-28T18:34:01.247Z,3.40
2022-10-28T18:36:07.741Z,4.57
2022-10-28T18:38:10.579Z,2.93
2022-10-28T18:40:13.810Z,2.97
2022-10-28T18:42:20.976Z,3.33
2022-10-28T18:44:31.624Z,5.00
2022-10-28T18:46:37.564Z,3.93
2022-10-28T18:48:41.299Z,3.50
2022-10-28T18:50:46.957Z,3.47
2022-10-28T18:52:53.694Z,3.57
2022-10-28T18:54:56.745Z,3.17
2022-10-28T18:56:59.544Z,2.80
2022-10-28T18:59:05.290Z,2.80
2022-10-28T19:01:09.657Z,3.00
2022-10-28T19:03:20.104Z,3.10
2022-10-28T19:05:23.001Z,2.97
2022-10-28T19:07:26.035Z,3.07
2022-10-28T19:09:30.214Z,2.80
2022-10-28T19:11:34.439Z,2.80
2022-10-28T19:13:39.036Z,3.10
2022-10-28T19:15:47.410Z,2.73
2022-10-28T19:17:52.958Z,3.20
2022-10-28T19:19:55.912Z,3.30
2022-10-28T19:21:58.754Z,2.97
2022-10-28T19:24:03.545Z,3.00
2022-10-28T19:26:08.294Z,3.03
2022-10-28T19:28:11.248Z,3.17
2022-10-28T19:30:14.231Z,3.30
2022-10-28T19:32:17.128Z,3.00
2022-10-28T19:34:20.095Z,3.10
2022-10-28T19:36:24.966Z,3.70
2022-10-28T19:38:31.803Z,3.33
2022-10-28T19:40:34.692Z,3.30
2022-10-28T19:42:39.659Z,3.27
2022-10-28T19:44:42.504Z,3.30
2022-10-28T19:46:45.463Z,3.37
2022-10-28T19:48:50.285Z,3.53
2022-10-28T19:50:53.263Z,2.90
2022-10-28T19:52:56.745Z,3.40
2022-10-28T19:54:59.700Z,3.13
2022-10-28T19:57:02.616Z,2.97
2022-10-28T19:59:07.534Z,3.30
2022-10-28T20:01:12.378Z,3.73
2022-10-28T20:03:15.272Z,3.70
2022-10-28T20:05:18.101Z,3.63
2022-10-28T20:07:23.329Z,3.80
2022-10-28T20:09:28.896Z,3.37
2022-10-28T20:11:34.111Z,4.00
2022-10-28T20:13:37.711Z,3.07
2022-10-28T20:15:41.877Z,3.07
2022-10-28T20:17:44.763Z,3.63
2022-10-28T20:19:47.630Z,3.03
2022-10-28T20:21:50.839Z,3.80
2022-10-28T20:23:55.659Z,3.07
2022-10-28T20:25:59.192Z,3.23
2022-10-28T20:28:02.037Z,3.77
2022-10-28T20:30:05.574Z,3.67
2022-10-28T20:32:09.817Z,3.70
2022-10-28T20:34:12.631Z,3.57
2022-10-28T20:36:26.120Z,4.57
2022-10-28T20:38:29.666Z,3.80
2022-10-28T20:40:34.096Z,4.20
2022-10-28T20:42:36.931Z,3.93
2022-10-28T20:44:39.829Z,6.77
2022-10-28T20:46:42.844Z,5.90
2022-10-28T20:48:47.190Z,6.40
2022-10-28T20:50:51.263Z,8.70
2022-10-28T20:52:54.318Z,8.10
2022-10-28T20:54:57.372Z,8.80
2022-10-28T20:57:00.205Z,7.90
2022-10-28T20:59:03.060Z,8.70
2022-10-28T21:01:08.132Z,8.40
2022-10-28T21:03:11.496Z,7.43
2022-10-28T21:05:15.954Z,6.60
2022-10-28T21:07:18.785Z,5.20
2022-10-28T21:09:21.603Z,4.17
2022-10-28T21:11:26.029Z,4.33
2022-10-28T21:13:28.882Z,3.93
2022-10-28T21:15:35.030Z,4.20
2022-10-28T21:17:38.016Z,4.10
2022-10-28T21:19:40.794Z,3.90
2022-10-28T21:21:45.069Z,3.60
2022-10-28T21:23:47.898Z,3.80
2022-10-28T21:25:54.133Z,3.67
2022-10-28T21:27:58.021Z,3.70
2022-10-28T21:30:01.394Z,4.53
2022-10-28T21:32:04.414Z,4.10
2022-10-28T21:34:08.454Z,4.07
2022-10-28T21:36:13.643Z,4.03
2022-10-28T21:38:18.019Z,4.07
2022-10-28T21:40:20.903Z,3.83
2022-10-28T21:42:23.843Z,3.83
2022-10-28T21:44:26.665Z,3.70
2022-10-28T21:46:29.561Z,3.93
2022-10-28T21:48:33.512Z,3.60
2022-10-28T21:50:36.344Z,3.77
2022-10-28T21:52:39.622Z,3.70
2022-10-28T21:54:43.851Z,3.80
2022-10-28T21:56:46.697Z,4.47
2022-10-28T21:58:51.391Z,3.77
2022-10-28T22:00:54.259Z,4.20
2022-10-28T22:02:57.259Z,5.23
2022-10-28T22:05:00.110Z,4.50
2022-10-28T22:07:03.116Z,3.70
2022-10-28T22:09:08.999Z,3.87
2022-10-28T22:11:15.520Z,3.67
2022-10-28T22:13:18.487Z,3.90
2022-10-28T22:15:21.345Z,4.27
2022-10-28T22:17:24.277Z,4.00
2022-10-28T22:19:27.081Z,4.20
2022-10-28T22:21:33.173Z,4.17
2022-10-28T22:23:36.776Z,4.03
2022-10-28T22:25:39.585Z,4.43
2022-10-28T22:27:44.926Z,3.90
2022-10-28T22:29:47.761Z,3.57
2022-10-28T22:31:50.589Z,3.77
2022-10-28T22:33:54.128Z,3.87
2022-10-28T22:35:58.111Z,4.37
2022-10-28T22:38:00.955Z,4.00
2022-10-28T22:40:03.829Z,4.03
2022-10-28T22:42:07.437Z,3.93
2022-10-28T22:44:11.757Z,4.00
2022-10-28T22:46:14.945Z,4.10
2022-10-28T22:48:17.764Z,4.10
2022-10-28T22:50:21.035Z,4.00
2022-10-28T22:52:23.981Z,4.67
2022-10-28T22:54:26.804Z,4.17
2022-10-28T22:56:29.804Z,4.03
2022-10-28T22:58:33.039Z,4.40
2022-10-28T23:00:37.201Z,4.57
2022-10-28T23:02:40.110Z,4.07
2022-10-28T23:04:43.136Z,4.37
2022-10-28T23:06:46.122Z,4.43
2022-10-28T23:08:49.561Z,4.50
2022-10-28T23:10:53.935Z,4.40
2022-10-28T23:12:57.466Z,4.30
2022-10-28T23:15:00.497Z,4.50
2022-10-28T23:17:04.719Z,4.23
2022-10-28T23:19:07.618Z,4.10
2022-10-28T23:21:13.496Z,4.37
2022-10-28T23:23:16.348Z,4.13
2022-10-28T23:25:19.276Z,4.70
2022-10-28T23:27:22.140Z,3.97
2022-10-28T23:29:25.030Z,4.00
2022-10-28T23:31:28.736Z,3.90
2022-10-28T23:33:35.033Z,4.20
2022-10-28T23:35:37.913Z,4.47
2022-10-28T23:37:40.719Z,4.73
2022-10-28T23:39:43.583Z,4.87
2022-10-28T23:41:46.406Z,4.20
2022-10-28T23:43:49.795Z,4.30
2022-10-28T23:45:52.859Z,4.37
2022-10-28T23:47:55.817Z,4.80
2022-10-28T23:50:00.014Z,4.20
2022-10-28T23:52:02.997Z,4.20
2022-10-28T23:54:05.995Z,4.57
2022-10-28T23:56:08.988Z,4.20
2022-10-28T23:58:11.975Z,4.37
